sensor_id;sensor_type;location;lat;lon;timestamp;pressure;altitude;pressure_sealevel;temperature;humidity
7309;BME280;3695;53.330;9.876;2023-01-26T00:02:07;106642.19;;;-1.21;100.00
7309;BME280;3695;53.330;9.876;2023-01-26T00:04:34;106651.06;;;-1.22;100.00
7309;BME280;3695;53.330;9.876;2023-01-26T00:07:00;106671.50;;;-1.12;100.00
7309;BME280;3695;53.330;9.876;2023-01-26T00:09:28;106691.94;;;-1.11;100.00
7309;BME280;3695;53.330;9.876;2023-01-26T00:11:55;106747.06;;;-0.89;100.00
7309;BME280;3695;53.330;9.876;2023-01-26T00:14:21;106764.81;;;-0.85;100.00
7309;BME280;3695;53.330;9.876;2023-01-26T00:16:47;106771.94;;;-0.84;100.00
7309;BME280;3695;53.330;9.876;2023-01-26T00:19:14;106745.22;;;-0.96;100.00
7309;BME280;3695;53.330;9.876;2023-01-26T00:21:40;106763.94;;;-0.90;100.00
7309;BME280;3695;53.330;9.876;2023-01-26T00:24:07;106731.03;;;-0.95;100.00
7309;BME280;3695;53.330;9.876;2023-01-26T00:26:34;106751.41;;;-1.09;100.00
7309;BME280;3695;53.330;9.876;2023-01-26T00:29:01;106846.56;;;-0.78;100.00
7309;BME280;3695;53.330;9.876;2023-01-26T00:31:27;106865.28;;;-0.64;100.00
7309;BME280;3695;53.330;9.876;2023-01-26T00:33:55;106818.13;;;-0.82;100.00
7309;BME280;3695;53.330;9.876;2023-01-26T00:36:22;106774.53;;;-1.02;100.00
7309;BME280;3695;53.330;9.876;2023-01-26T00:38:49;106810.13;;;-0.92;100.00
7309;BME280;3695;53.330;9.876;2023-01-26T00:41:15;106814.47;;;-1.08;100.00
7309;BME280;3695;53.330;9.876;2023-01-26T00:43:57;106874.97;;;-0.86;100.00
7309;BME280;3695;53.330;9.876;2023-01-26T00:46:24;106866.09;;;-0.89;100.00
7309;BME280;3695;53.330;9.876;2023-01-26T00:48:50;106884.75;;;-0.86;100.00
7309;BME280;3695;53.330;9.876;2023-01-26T00:51:16;106922.13;;;-0.73;100.00
7309;BME280;3695;53.330;9.876;2023-01-26T00:53:43;106909.66;;;-0.83;100.00
7309;BME280;3695;53.330;9.876;2023-01-26T00:56:09;106939.03;;;-0.61;100.00
7309;BME280;3695;53.330;9.876;2023-01-26T00:58:36;106898.16;;;-0.60;100.00
7309;BME280;3695;53.330;9.876;2023-01-26T01:01:06;106859.06;;;-0.65;100.00
7309;BME280;3695;53.330;9.876;2023-01-26T01:03:32;106798.59;;;-0.81;100.00
7309;BME280;3695;53.330;9.876;2023-01-26T01:05:59;106818.19;;;-0.60;100.00
7309;BME280;3695;53.330;9.876;2023-01-26T01:08:25;106804.84;;;-0.60;100.00
7309;BME280;3695;53.330;9.876;2023-01-26T01:11:01;106769.28;;;-0.70;100.00
7309;BME280;3695;53.330;9.876;2023-01-26T01:13:28;106776.41;;;-0.58;100.00
7309;BME280;3695;53.330;9.876;2023-01-26T01:15:54;106734.63;;;-0.69;100.00
7309;BME280;3695;53.330;9.876;2023-01-26T01:18:22;106714.19;;;-0.71;100.00
7309;BME280;3695;53.330;9.876;2023-01-26T01:20:49;106725.75;;;-0.65;100.00
7309;BME280;3695;53.330;9.876;2023-01-26T01:23:15;106755.97;;;-0.55;100.00
7309;BME280;3695;53.330;9.876;2023-01-26T01:25:41;106724.84;;;-0.64;100.00
7309;BME280;3695;53.330;9.876;2023-01-26T01:28:08;106688.44;;;-0.81;100.00
7309;BME280;3695;53.330;9.876;2023-01-26T01:30:36;106706.19;;;-0.73;100.00
7309;BME280;3695;53.330;9.876;2023-01-26T01:33:02;106701.75;;;-0.81;100.00
7309;BME280;3695;53.330;9.876;2023-01-26T01:35:30;106779.06;;;-0.58;100.00
7309;BME280;3695;53.330;9.876;2023-01-26T01:38:00;106782.63;;;-0.72;100.00
7309;BME280;3695;53.330;9.876;2023-01-26T01:40:26;106804.84;;;-0.71;100.00
7309;BME280;3695;53.330;9.876;2023-01-26T01:42:52;106856.41;;;-0.54;100.00
7309;BME280;3695;53.330;9.876;2023-01-26T01:45:41;106832.41;;;-0.55;100.00
7309;BME280;3695;53.330;9.876;2023-01-26T01:48:14;106707.91;;;-1.05;100.00
7309;BME280;3695;53.330;9.876;2023-01-26T01:50:44;106748.84;;;-0.91;100.00
7309;BME280;3695;53.330;9.876;2023-01-26T01:53:16;106828.81;;;-0.70;100.00
7309;BME280;3695;53.330;9.876;2023-01-26T01:55:49;106857.28;;;-0.63;100.00
7309;BME280;3695;53.330;9.876;2023-01-26T01:58:16;106870.63;;;-0.61;100.00
7309;BME280;3695;53.330;9.876;2023-01-26T02:00:44;106892.84;;;-0.50;100.00
7309;BME280;3695;53.330;9.876;2023-01-26T02:03:10;106873.28;;;-0.52;100.00
7309;BME280;3695;53.330;9.876;2023-01-26T02:05:42;106855.50;;;-0.57;100.00
7309;BME280;3695;53.330;9.876;2023-01-26T02:08:15;106892.91;;;-0.44;100.00
7309;BME280;3695;53.330;9.876;2023-01-26T02:10:45;106860.84;;;-0.51;100.00
7309;BME280;3695;53.330;9.876;2023-01-26T02:13:13;106791.50;;;-0.79;100.00
7309;BME280;3695;53.330;9.876;2023-01-26T02:15:40;106820.81;;;-0.79;100.00
7309;BME280;3695;53.330;9.876;2023-01-26T02:18:07;106819.91;;;-0.84;100.00
7309;BME280;3695;53.330;9.876;2023-01-26T02:20:41;106850.13;;;-0.76;100.00
7309;BME280;3695;53.330;9.876;2023-01-26T02:23:21;106899.06;;;-0.54;100.00
7309;BME280;3695;53.330;9.876;2023-01-26T02:26:10;106916.84;;;-0.57;100.00
7309;BME280;3695;53.330;9.876;2023-01-26T02:28:38;106870.59;;;-0.67;100.00
7309;BME280;3695;53.330;9.876;2023-01-26T02:31:05;106875.06;;;-0.58;100.00
7309;BME280;3695;53.330;9.876;2023-01-26T02:33:33;106869.72;;;-0.58;100.00
7309;BME280;3695;53.330;9.876;2023-01-26T02:36:00;106886.69;;;-0.43;100.00
7309;BME280;3695;53.330;9.876;2023-01-26T02:38:30;106851.97;;;-0.56;100.00
7309;BME280;3695;53.330;9.876;2023-01-26T02:41:01;106809.28;;;-0.61;100.00
7309;BME280;3695;53.330;9.876;2023-01-26T02:43:30;106816.41;;;-0.58;100.00
7309;BME280;3695;53.330;9.876;2023-01-26T02:45:56;106829.78;;;-0.43;100.00
7309;BME280;3695;53.330;9.876;2023-01-26T02:48:22;106845.78;;;-0.34;100.00
7309;BME280;3695;53.330;9.876;2023-01-26T02:51:06;106745.28;;;-0.81;100.00
7309;BME280;3695;53.330;9.876;2023-01-26T02:53:33;106785.28;;;-0.63;100.00
7309;BME280;3695;53.330;9.876;2023-01-26T02:56:00;106795.03;;;-0.77;100.00
7309;BME280;3695;53.330;9.876;2023-01-26T02:58:25;106887.50;;;-0.54;100.00
7309;BME280;3695;53.330;9.876;2023-01-26T03:00:53;106877.72;;;-0.63;100.00
7309;BME280;3695;53.330;9.876;2023-01-26T03:03:22;106921.34;;;-0.41;100.00
7309;BME280;3695;53.330;9.876;2023-01-26T03:05:49;106943.50;;;-0.57;100.00
7309;BME280;3695;53.330;9.876;2023-01-26T03:08:15;106931.88;;;-0.73;100.00
7309;BME280;3695;53.330;9.876;2023-01-26T03:10:42;106989.72;;;-0.54;100.00
7309;BME280;3695;53.330;9.876;2023-01-26T03:13:11;107049.38;;;-0.41;100.00
7309;BME280;3695;53.330;9.876;2023-01-26T03:15:38;107063.63;;;-0.36;100.00
7309;BME280;3695;53.330;9.876;2023-01-26T03:18:19;107040.50;;;-0.39;100.00
7309;BME280;3695;53.330;9.876;2023-01-26T03:21:05;107055.63;;;-0.39;100.00
7309;BME280;3695;53.330;9.876;2023-01-26T03:23:49;107017.31;;;-0.49;100.00
7309;BME280;3695;53.330;9.876;2023-01-26T03:26:34;107005.75;;;-0.51;100.00
7309;BME280;3695;53.330;9.876;2023-01-26T03:29:18;106987.09;;;-0.48;100.00
7309;BME280;3695;53.330;9.876;2023-01-26T03:31:45;107017.41;;;-0.35;100.00
7309;BME280;3695;53.330;9.876;2023-01-26T03:34:13;106996.91;;;-0.44;100.00
7309;BME280;3695;53.330;9.876;2023-01-26T03:36:40;106884.75;;;-0.89;100.00
7309;BME280;3695;53.330;9.876;2023-01-26T03:39:06;106992.41;;;-0.54;100.00
7309;BME280;3695;53.330;9.876;2023-01-26T03:41:32;107035.97;;;-0.52;100.00
7309;BME280;3695;53.330;9.876;2023-01-26T03:44:17;107056.38;;;-0.58;100.00
7309;BME280;3695;53.330;9.876;2023-01-26T03:47:01;107157.00;;;-0.36;100.00
7309;BME280;3695;53.330;9.876;2023-01-26T03:49:46;107155.16;;;-0.45;100.00
7309;BME280;3695;53.330;9.876;2023-01-26T03:52:30;107139.94;;;-0.56;100.00
7309;BME280;3695;53.330;9.876;2023-01-26T03:55:14;107163.16;;;-0.43;100.00
7309;BME280;3695;53.330;9.876;2023-01-26T03:57:58;107138.16;;;-0.59;100.00
7309;BME280;3695;53.330;9.876;2023-01-26T04:00:25;107153.28;;;-0.56;100.00
7309;BME280;3695;53.330;9.876;2023-01-26T04:02:51;107163.06;;;-0.52;100.00
7309;BME280;3695;53.330;9.876;2023-01-26T04:05:37;107224.53;;;-0.40;100.00
7309;BME280;3695;53.330;9.876;2023-01-26T04:08:21;107224.56;;;-0.34;100.00
7309;BME280;3695;53.330;9.876;2023-01-26T04:10:52;107243.25;;;-0.34;100.00
7309;BME280;3695;53.330;9.876;2023-01-26T04:13:19;107197.75;;;-0.51;100.00
7309;BME280;3695;53.330;9.876;2023-01-26T04:16:04;107198.63;;;-0.53;100.00
7309;BME280;3695;53.330;9.876;2023-01-26T04:18:49;107207.50;;;-0.54;100.00
7309;BME280;3695;53.330;9.876;2023-01-26T04:21:34;107250.28;;;-0.47;100.00
7309;BME280;3695;53.330;9.876;2023-01-26T04:24:03;107275.19;;;-0.43;100.00
7309;BME280;3695;53.330;9.876;2023-01-26T04:26:35;107247.53;;;-0.50;100.00
7309;BME280;3695;53.330;9.876;2023-01-26T04:29:03;107302.00;;;-0.28;100.00
7309;BME280;3695;53.330;9.876;2023-01-26T04:31:30;107309.06;;;-0.33;100.00
7309;BME280;3695;53.330;9.876;2023-01-26T04:33:57;107286.78;;;-0.41;100.00
7309;BME280;3695;53.330;9.876;2023-01-26T04:36:24;107289.50;;;-0.32;100.00
7309;BME280;3695;53.330;9.876;2023-01-26T04:38:51;107276.16;;;-0.32;100.00
7309;BME280;3695;53.330;9.876;2023-01-26T04:41:18;107261.06;;;-0.32;100.00
7309;BME280;3695;53.330;9.876;2023-01-26T04:43:44;107318.16;;;-0.08;100.00
7309;BME280;3695;53.330;9.876;2023-01-26T04:46:11;107254.88;;;-0.26;100.00
7309;BME280;3695;53.330;9.876;2023-01-26T04:48:38;107187.16;;;-0.45;100.00
7309;BME280;3695;53.330;9.876;2023-01-26T04:51:11;107197.91;;;-0.36;100.00
7309;BME280;3695;53.330;9.876;2023-01-26T04:53:37;107197.94;;;-0.28;100.00
7309;BME280;3695;53.330;9.876;2023-01-26T04:56:07;107202.44;;;-0.18;100.00
7309;BME280;3695;53.330;9.876;2023-01-26T04:58:34;107161.50;;;-0.26;100.00
7309;BME280;3695;53.330;9.876;2023-01-26T05:01:00;107087.50;;;-0.56;100.00
7309;BME280;3695;53.330;9.876;2023-01-26T05:03:27;107106.25;;;-0.45;100.00
7309;BME280;3695;53.330;9.876;2023-01-26T05:05:54;107198.94;;;-0.11;100.00
7309;BME280;3695;53.330;9.876;2023-01-26T05:08:21;107190.91;;;-0.14;100.00
7309;BME280;3695;53.330;9.876;2023-01-26T05:10:47;107219.44;;;-0.02;100.00
7309;BME280;3695;53.330;9.876;2023-01-26T05:13:17;107149.97;;;-0.17;100.00
7309;BME280;3695;53.330;9.876;2023-01-26T05:15:43;107125.94;;;-0.19;100.00
7309;BME280;3695;53.330;9.876;2023-01-26T05:18:10;107119.78;;;-0.09;100.00
7309;BME280;3695;53.330;9.876;2023-01-26T05:20:37;107044.06;;;-0.35;100.00
7309;BME280;3695;53.330;9.876;2023-01-26T05:23:03;107125.13;;;-0.03;100.00
7309;BME280;3695;53.330;9.876;2023-01-26T05:25:30;107070.78;;;-0.26;100.00
7309;BME280;3695;53.330;9.876;2023-01-26T05:27:56;107029.81;;;-0.43;100.00
7309;BME280;3695;53.330;9.876;2023-01-26T05:30:24;107101.94;;;-0.22;100.00
7309;BME280;3695;53.330;9.876;2023-01-26T05:32:50;107111.72;;;-0.16;100.00
7309;BME280;3695;53.330;9.876;2023-01-26T05:35:17;107154.47;;;-0.04;100.00
7309;BME280;3695;53.330;9.876;2023-01-26T05:37:43;107131.34;;;-0.07;100.00
7309;BME280;3695;53.330;9.876;2023-01-26T05:40:11;107101.06;;;-0.13;100.00
7309;BME280;3695;53.330;9.876;2023-01-26T05:42:38;107055.66;;;-0.28;100.00
7309;BME280;3695;53.330;9.876;2023-01-26T05:45:05;107091.28;;;-0.19;100.00
7309;BME280;3695;53.330;9.876;2023-01-26T05:47:33;107096.53;;;-0.33;100.00
7309;BME280;3695;53.330;9.876;2023-01-26T05:50:00;107142.88;;;-0.17;100.00
7309;BME280;3695;53.330;9.876;2023-01-26T05:52:26;107103.66;;;-0.30;100.00
7309;BME280;3695;53.330;9.876;2023-01-26T05:54:53;107190.03;;;-0.11;100.00
7309;BME280;3695;53.330;9.876;2023-01-26T05:57:19;107201.56;;;-0.18;100.00
7309;BME280;3695;53.330;9.876;2023-01-26T05:59:45;107244.34;;;-0.03;100.00
7309;BME280;3695;53.330;9.876;2023-01-26T06:02:12;107247.91;;;-0.04;100.00
7309;BME280;3695;53.330;9.876;2023-01-26T06:04:40;107201.53;;;-0.21;100.00
7309;BME280;3695;53.330;9.876;2023-01-26T06:07:06;107209.53;;;-0.23;100.00
7309;BME280;3695;53.330;9.876;2023-01-26T06:09:32;107252.28;;;-0.14;100.00
7309;BME280;3695;53.330;9.876;2023-01-26T06:11:59;107258.41;;;-0.30;100.00
7309;BME280;3695;53.330;9.876;2023-01-26T06:14:26;107267.25;;;-0.37;100.00
7309;BME280;3695;53.330;9.876;2023-01-26T06:16:53;107340.25;;;-0.27;100.00
7309;BME280;3695;53.330;9.876;2023-01-26T06:19:20;107419.53;;;-0.13;100.00
7309;BME280;3695;53.330;9.876;2023-01-26T06:21:48;107462.19;;;-0.16;100.00
7309;BME280;3695;53.330;9.876;2023-01-26T06:24:15;107467.38;;;-0.31;100.00
7309;BME280;3695;53.330;9.876;2023-01-26T06:26:41;107569.13;;;-0.01;100.00
7309;BME280;3695;53.330;9.876;2023-01-26T06:29:08;107514.50;;;-0.32;100.00
7309;BME280;3695;53.330;9.876;2023-01-26T06:31:35;107539.47;;;-0.26;100.00
7309;BME280;3695;53.330;9.876;2023-01-26T06:34:02;107629.53;;;-0.09;100.00
7309;BME280;3695;53.330;9.876;2023-01-26T06:36:29;107550.78;;;-0.46;100.00
7309;BME280;3695;53.330;9.876;2023-01-26T06:38:57;107674.03;;;-0.08;100.00
7309;BME280;3695;53.330;9.876;2023-01-26T06:41:23;107709.59;;;-0.09;100.00
7309;BME280;3695;53.330;9.876;2023-01-26T06:43:50;107766.81;;;0.09;100.00
7309;BME280;3695;53.330;9.876;2023-01-26T06:46:17;107756.06;;;0.03;100.00
7309;BME280;3695;53.330;9.876;2023-01-26T06:48:44;107836.47;;;0.24;100.00
7309;BME280;3695;53.330;9.876;2023-01-26T06:51:38;107755.16;;;0.02;100.00
7309;BME280;3695;53.330;9.876;2023-01-26T06:54:09;107747.06;;;-0.01;100.00
7309;BME280;3695;53.330;9.876;2023-01-26T06:56:36;107758.81;;;0.10;100.00
7309;BME280;3695;53.330;9.876;2023-01-26T06:59:03;107715.13;;;0.02;100.00
7309;BME280;3695;53.330;9.876;2023-01-26T07:01:32;107758.06;;;0.20;100.00
7309;BME280;3695;53.330;9.876;2023-01-26T07:04:00;107724.25;;;0.21;100.00
7309;BME280;3695;53.330;9.876;2023-01-26T07:06:26;107667.19;;;0.11;100.00
7309;BME280;3695;53.330;9.876;2023-01-26T07:08:52;107641.28;;;0.06;100.00
7309;BME280;3695;53.330;9.876;2023-01-26T07:11:20;107616.34;;;0.04;100.00
7309;BME280;3695;53.330;9.876;2023-01-26T07:13:48;107646.75;;;0.16;100.00
7309;BME280;3695;53.330;9.876;2023-01-26T07:16:16;107623.53;;;0.08;100.00
7309;BME280;3695;53.330;9.876;2023-01-26T07:18:43;107642.38;;;0.23;100.00
7309;BME280;3695;53.330;9.876;2023-01-26T07:21:11;107531.63;;;-0.11;100.00
7309;BME280;3695;53.330;9.876;2023-01-26T07:23:37;107579.97;;;0.12;100.00
7309;BME280;3695;53.330;9.876;2023-01-26T07:26:04;107598.78;;;0.24;100.00
7309;BME280;3695;53.330;9.876;2023-01-26T07:28:32;107640.78;;;0.40;100.00
7309;BME280;3695;53.330;9.876;2023-01-26T07:31:00;107623.06;;;0.47;100.00
7309;BME280;3695;53.330;9.876;2023-01-26T07:33:27;107546.34;;;0.32;100.00
7309;BME280;3695;53.330;9.876;2023-01-26T07:35:54;107486.66;;;0.28;100.00
7309;BME280;3695;53.330;9.876;2023-01-26T07:38:21;107393.91;;;0.03;100.00
7309;BME280;3695;53.330;9.876;2023-01-26T07:40:48;107443.94;;;0.27;100.00
7309;BME280;3695;53.330;9.876;2023-01-26T07:43:14;107480.56;;;0.43;100.00
7309;BME280;3695;53.330;9.876;2023-01-26T07:45:45;107448.41;;;0.31;100.00
7309;BME280;3695;53.330;9.876;2023-01-26T07:48:11;107362.78;;;0.07;100.00
7309;BME280;3695;53.330;9.876;2023-01-26T07:50:38;107384.94;;;-0.01;100.00
7309;BME280;3695;53.330;9.876;2023-01-26T07:53:05;107434.19;;;0.35;100.00
7309;BME280;3695;53.330;9.876;2023-01-26T07:55:33;107422.53;;;0.24;100.00
7309;BME280;3695;53.330;9.876;2023-01-26T07:58:00;107452.00;;;0.36;100.00
7309;BME280;3695;53.330;9.876;2023-01-26T08:00:26;107423.44;;;0.26;100.00
7309;BME280;3695;53.330;9.876;2023-01-26T08:02:54;107471.78;;;0.56;100.00
7309;BME280;3695;53.330;9.876;2023-01-26T08:05:20;107358.41;;;0.19;100.00
7309;BME280;3695;53.330;9.876;2023-01-26T08:07:47;107420.97;;;0.49;100.00
7309;BME280;3695;53.330;9.876;2023-01-26T08:10:13;107411.19;;;0.52;100.00
7309;BME280;3695;53.330;9.876;2023-01-26T08:12:40;107338.91;;;0.29;100.00
7309;BME280;3695;53.330;9.876;2023-01-26T08:15:07;107363.91;;;0.41;100.00
7309;BME280;3695;53.330;9.876;2023-01-26T08:17:34;107312.16;;;0.20;100.00
7309;BME280;3695;53.330;9.876;2023-01-26T08:20:04;107277.38;;;0.10;100.00
7309;BME280;3695;53.330;9.876;2023-01-26T08:22:31;107364.75;;;0.35;100.00
7309;BME280;3695;53.330;9.876;2023-01-26T08:24:58;107371.88;;;0.36;100.00
7309;BME280;3695;53.330;9.876;2023-01-26T08:27:24;107403.09;;;0.43;100.00
7309;BME280;3695;53.330;9.876;2023-01-26T08:29:51;107364.69;;;0.23;100.00
7309;BME280;3695;53.330;9.876;2023-01-26T08:32:17;107398.47;;;0.21;100.00
7309;BME280;3695;53.330;9.876;2023-01-26T08:34:43;107517.19;;;0.56;100.00
7309;BME280;3695;53.330;9.876;2023-01-26T08:37:11;107476.91;;;0.32;100.00
7309;BME280;3695;53.330;9.876;2023-01-26T08:39:38;107510.78;;;0.39;100.00
7309;BME280;3695;53.330;9.876;2023-01-26T08:42:04;107525.63;;;0.07;100.00
7309;BME280;3695;53.330;9.876;2023-01-26T08:44:31;107620.88;;;0.11;100.00
7309;BME280;3695;53.330;9.876;2023-01-26T08:46:57;107773.63;;;0.52;100.00
7309;BME280;3695;53.330;9.876;2023-01-26T08:49:24;107811.84;;;0.46;100.00
7309;BME280;3695;53.330;9.876;2023-01-26T08:51:50;107822.41;;;0.37;100.00
7309;BME280;3695;53.330;9.876;2023-01-26T08:54:18;107801.81;;;0.30;100.00
7309;BME280;3695;53.330;9.876;2023-01-26T08:56:44;107974.31;;;0.72;100.00
7309;BME280;3695;53.330;9.876;2023-01-26T08:59:11;107922.97;;;0.34;100.00
7309;BME280;3695;53.330;9.876;2023-01-26T09:01:37;108117.06;;;0.83;100.00
7309;BME280;3695;53.330;9.876;2023-01-26T09:04:04;108075.69;;;0.59;100.00
7309;BME280;3695;53.330;9.876;2023-01-26T09:06:30;108186.91;;;1.01;100.00
7309;BME280;3695;53.330;9.876;2023-01-26T09:08:57;108164.56;;;0.98;100.00
7309;BME280;3695;53.330;9.876;2023-01-26T09:11:25;108048.25;;;0.70;100.00
7309;BME280;3695;53.330;9.876;2023-01-26T09:13:51;108057.19;;;0.72;100.00
7309;BME280;3695;53.330;9.876;2023-01-26T09:16:21;108052.66;;;0.68;100.00
7309;BME280;3695;53.330;9.876;2023-01-26T09:18:48;108161.91;;;0.98;100.00
7309;BME280;3695;53.330;9.876;2023-01-26T09:21:15;108101.84;;;0.79;100.00
7309;BME280;3695;53.330;9.876;2023-01-26T09:23:41;108060.75;;;0.72;100.00
7309;BME280;3695;53.330;9.876;2023-01-26T09:26:08;108051.00;;;0.76;100.00
7309;BME280;3695;53.330;9.876;2023-01-26T09:28:36;108033.97;;;0.68;100.00
7309;BME280;3695;53.330;9.876;2023-01-26T09:31:03;108024.91;;;0.59;100.00
7309;BME280;3695;53.330;9.876;2023-01-26T09:33:29;108133.34;;;0.95;100.00
7309;BME280;3695;53.330;9.876;2023-01-26T09:36:02;108160.91;;;0.94;100.00
7309;BME280;3695;53.330;9.876;2023-01-26T09:38:28;108079.34;;;0.65;100.00
7309;BME280;3695;53.330;9.876;2023-01-26T09:41:03;108162.63;;;0.89;100.00
7309;BME280;3695;53.330;9.876;2023-01-26T09:43:37;108179.59;;;0.92;100.00
7309;BME280;3695;53.330;9.876;2023-01-26T09:46:13;108072.06;;;0.56;100.00
7309;BME280;3695;53.330;9.876;2023-01-26T09:48:45;108164.38;;;0.87;100.00
7309;BME280;3695;53.330;9.876;2023-01-26T09:51:19;108175.66;;;0.71;100.00
7309;BME280;3695;53.330;9.876;2023-01-26T09:53:55;108283.00;;;0.92;100.00
7309;BME280;3695;53.330;9.876;2023-01-26T09:56:27;108430.81;;;1.27;100.00
7309;BME280;3695;53.330;9.876;2023-01-26T09:58:59;108424.50;;;1.23;100.00
7309;BME280;3695;53.330;9.876;2023-01-26T10:01:36;108324.19;;;1.00;100.00
7309;BME280;3695;53.330;9.876;2023-01-26T10:04:10;108309.31;;;1.16;100.00
7309;BME280;3695;53.330;9.876;2023-01-26T10:06:38;108299.56;;;1.19;100.00
7309;BME280;3695;53.330;9.876;2023-01-26T10:09:11;108213.63;;;1.00;100.00
7309;BME280;3695;53.330;9.876;2023-01-26T10:11:42;108203.06;;;1.07;100.00
7309;BME280;3695;53.330;9.876;2023-01-26T10:14:14;108177.94;;;0.98;100.00
7309;BME280;3695;53.330;9.876;2023-01-26T10:16:42;108171.72;;;0.99;100.00
7309;BME280;3695;53.330;9.876;2023-01-26T10:19:13;108255.91;;;1.22;100.00
7309;BME280;3695;53.330;9.876;2023-01-26T10:21:44;108253.22;;;1.20;100.00
7309;BME280;3695;53.330;9.876;2023-01-26T10:24:13;108235.47;;;1.25;100.00
7309;BME280;3695;53.330;9.876;2023-01-26T10:26:42;108178.28;;;1.19;100.00
7309;BME280;3695;53.330;9.876;2023-01-26T10:29:13;108196.34;;;1.34;100.00
7309;BME280;3695;53.330;9.876;2023-01-26T10:31:40;108162.34;;;1.26;100.00
7309;BME280;3695;53.330;9.876;2023-01-26T10:34:11;108090.69;;;1.04;100.00
7309;BME280;3695;53.330;9.876;2023-01-26T10:36:40;108064.81;;;1.03;100.00
7309;BME280;3695;53.330;9.876;2023-01-26T10:39:09;108230.31;;;1.38;100.00
7309;BME280;3695;53.330;9.876;2023-01-26T10:41:36;108214.88;;;1.21;100.00
7309;BME280;3695;53.330;9.876;2023-01-26T10:44:21;108200.47;;;1.12;100.00
7309;BME280;3695;53.330;9.876;2023-01-26T10:47:03;108247.75;;;1.14;100.00
7309;BME280;3695;53.330;9.876;2023-01-26T10:49:30;108311.38;;;1.32;100.00
7309;BME280;3695;53.330;9.876;2023-01-26T10:52:10;108276.47;;;1.24;100.00
7309;BME280;3695;53.330;9.876;2023-01-26T10:54:39;108294.47;;;1.35;100.00
7309;BME280;3695;53.330;9.876;2023-01-26T10:57:16;108346.56;;;1.52;100.00
7309;BME280;3695;53.330;9.876;2023-01-26T10:59:49;108305.44;;;1.47;100.00
7309;BME280;3695;53.330;9.876;2023-01-26T11:02:20;108311.97;;;1.66;100.00
7309;BME280;3695;53.330;9.876;2023-01-26T11:05:04;108257.44;;;1.59;100.00
7309;BME280;3695;53.330;9.876;2023-01-26T11:07:40;108202.97;;;1.55;100.00
7309;BME280;3695;53.330;9.876;2023-01-26T11:10:31;108144.63;;;1.35;100.00
7309;BME280;3695;53.330;9.876;2023-01-26T11:13:13;108188.41;;;1.40;100.00
7309;BME280;3695;53.330;9.876;2023-01-26T11:15:44;108174.91;;;1.31;100.00
7309;BME280;3695;53.330;9.876;2023-01-26T11:18:20;108187.16;;;1.16;100.00
7309;BME280;3695;53.330;9.876;2023-01-26T11:20:53;108299.84;;;1.35;100.00
7309;BME280;3695;53.330;9.876;2023-01-26T11:23:30;108313.94;;;1.24;100.00
7309;BME280;3695;53.330;9.876;2023-01-26T11:26:15;108411.41;;;1.39;100.00
7309;BME280;3695;53.330;9.876;2023-01-26T11:28:57;108507.09;;;1.49;100.00
7309;BME280;3695;53.330;9.876;2023-01-26T11:31:39;108501.28;;;1.27;100.00
7309;BME280;3695;53.330;9.876;2023-01-26T11:34:21;108642.91;;;1.59;100.00
7309;BME280;3695;53.330;9.876;2023-01-26T11:36:57;108587.63;;;1.20;100.00
7309;BME280;3695;53.330;9.876;2023-01-26T11:39:29;108681.47;;;1.30;100.00
7309;BME280;3695;53.330;9.876;2023-01-26T11:42:15;108805.00;;;1.45;100.00
7309;BME280;3695;53.330;9.876;2023-01-26T11:44:58;108831.63;;;1.42;100.00
7309;BME280;3695;53.330;9.876;2023-01-26T11:47:45;108886.16;;;1.44;100.00
7309;BME280;3695;53.330;9.876;2023-01-26T11:50:25;108924.28;;;1.37;100.00
7309;BME280;3695;53.330;9.876;2023-01-26T11:53:08;109058.75;;;1.58;100.00
7309;BME280;3695;53.330;9.876;2023-01-26T11:55:48;109082.75;;;1.55;100.00
7309;BME280;3695;53.330;9.876;2023-01-26T11:58:26;109086.34;;;1.55;100.00
7309;BME280;3695;53.330;9.876;2023-01-26T12:00:56;109086.78;;;1.41;100.00
7309;BME280;3695;53.330;9.876;2023-01-26T12:03:30;109266.44;;;1.78;100.00
7309;BME280;3695;53.330;9.876;2023-01-26T12:06:01;109225.66;;;1.58;100.00
7309;BME280;3695;53.330;9.876;2023-01-26T12:08:34;109322.66;;;1.77;100.00
7309;BME280;3695;53.330;9.876;2023-01-26T12:11:07;109277.31;;;1.54;100.00
7309;BME280;3695;53.330;9.876;2023-01-26T12:13:59;109306.22;;;1.39;100.00
7309;BME280;3695;53.330;9.876;2023-01-26T12:16:34;109415.72;;;1.57;100.00
7309;BME280;3695;53.330;9.876;2023-01-26T12:19:11;109419.16;;;1.53;100.00
7309;BME280;3695;53.330;9.876;2023-01-26T12:21:43;109476.44;;;1.58;100.00
7309;BME280;3695;53.330;9.876;2023-01-26T12:24:16;109527.97;;;1.51;100.00
7309;BME280;3695;53.330;9.876;2023-01-26T12:26:47;109523.69;;;1.56;100.00
7309;BME280;3695;53.330;9.876;2023-01-26T12:29:20;109650.22;;;1.74;100.00
7309;BME280;3695;53.330;9.876;2023-01-26T12:31:53;109701.13;;;1.74;100.00
7309;BME280;3695;53.330;9.876;2023-01-26T12:34:26;109697.91;;;1.61;100.00
7309;BME280;3695;53.330;9.876;2023-01-26T12:37:06;109801.00;;;1.72;100.00
7309;BME280;3695;53.330;9.876;2023-01-26T12:39:44;109843.09;;;1.74;100.00
7309;BME280;3695;53.330;9.876;2023-01-26T12:42:18;109898.34;;;1.72;100.00
7309;BME280;3695;53.330;9.876;2023-01-26T12:44:52;109986.75;;;1.72;100.00
7309;BME280;3695;53.330;9.876;2023-01-26T12:47:25;110051.25;;;1.77;100.00
7309;BME280;3695;53.330;9.876;2023-01-26T12:49:57;110177.50;;;2.04;100.00
7309;BME280;3695;53.330;9.876;2023-01-26T12:52:30;110214.19;;;2.05;100.00
7309;BME280;3695;53.330;9.876;2023-01-26T12:55:04;110233.50;;;1.98;100.00
7309;BME280;3695;53.330;9.876;2023-01-26T12:57:37;110179.84;;;1.77;100.00
7309;BME280;3695;53.330;9.876;2023-01-26T13:00:13;110347.25;;;1.67;100.00
7309;BME280;3695;53.330;9.876;2023-01-26T13:02:44;110676.41;;;1.77;100.00
7309;BME280;3695;53.330;9.876;2023-01-26T13:05:23;110939.84;;;1.76;100.00
7309;BME280;3695;53.330;9.876;2023-01-26T13:07:50;111038.72;;;1.72;100.00
7309;BME280;3695;53.330;9.876;2023-01-26T13:10:28;111243.53;;;1.90;100.00
7309;BME280;3695;53.330;9.876;2023-01-26T13:12:59;111453.63;;;2.05;100.00
7309;BME280;3695;53.330;9.876;2023-01-26T13:15:27;111475.59;;;1.73;100.00
7309;BME280;3695;53.330;9.876;2023-01-26T13:17:56;111619.50;;;1.74;100.00
7309;BME280;3695;53.330;9.876;2023-01-26T13:20:28;111828.44;;;1.73;100.00
7309;BME280;3695;53.330;9.876;2023-01-26T13:23:36;112047.50;;;1.64;100.00